Time;durP1;ratioP1;P1;durP2;ratioP2;P2;SDS_P1;SDS_P2;PMS_P1;PMS_P2;Temp;Humidity;BMP_temperature;BMP_pressure;BME280_temperature;BME280_humidity;BME280_pressure;Samples;Min_cycle;Max_cycle;Signal;HPM_P1;HPM_P2
2021/03/14 00:01:12;;;;;;;3.72;0.98;;;3.90;99.90;;;;;;5015421;28;20122;-70
2021/03/14 00:03:56;;;;;;;6.30;1.17;;;3.80;99.90;;;;;;5018780;28;20048;-70
2021/03/14 00:07:02;;;;;;;6.88;1.20;;;3.80;99.90;;;;;;5023359;28;20064;-72
2021/03/14 00:09:51;;;;;;;5.20;0.80;;;3.80;99.90;;;;;;5024946;28;20080;-70
2021/03/14 00:12:35;;;;;;;5.85;1.08;;;3.70;99.90;;;;;;5034359;28;20048;-71
2021/03/14 00:15:22;;;;;;;5.82;0.82;;;3.50;99.90;;;;;;5018801;28;20029;-71
2021/03/14 00:18:06;;;;;;;4.85;1.05;;;3.10;99.90;;;;;;5027567;28;20049;-71
2021/03/14 00:20:51;;;;;;;4.22;0.77;;;2.80;99.90;;;;;;5024508;28;20091;-71
2021/03/14 00:23:36;;;;;;;4.53;0.55;;;2.50;99.90;;;;;;5021206;28;20455;-71
2021/03/14 00:26:20;;;;;;;5.97;0.77;;;2.30;99.90;;;;;;5027720;28;20115;-71
2021/03/14 00:29:05;;;;;;;7.60;1.05;;;2.30;99.90;;;;;;5028953;28;20060;-71
2021/03/14 00:31:50;;;;;;;7.00;0.88;;;2.30;99.90;;;;;;5020886;28;20088;-71
2021/03/14 00:34:54;;;;;;;2.75;0.68;;;2.30;99.90;;;;;;5025089;28;20029;-71
2021/03/14 00:37:59;;;;;;;9.80;0.93;;;2.40;99.90;;;;;;5023198;28;20038;-71
2021/03/14 00:41:03;;;;;;;8.77;0.70;;;2.40;99.90;;;;;;5024469;28;20036;-71
2021/03/14 00:44:06;;;;;;;2.97;0.65;;;2.40;99.90;;;;;;5025335;28;20046;-71
2021/03/14 00:46:50;;;;;;;2.60;0.50;;;2.50;99.90;;;;;;5019053;28;20163;-71
2021/03/14 00:49:34;;;;;;;3.42;0.80;;;2.50;99.90;;;;;;5028281;28;20064;-71
2021/03/14 00:52:19;;;;;;;3.70;0.80;;;2.50;99.90;;;;;;5027009;28;20079;-71
2021/03/14 00:55:09;;;;;;;2.88;0.85;;;2.50;99.90;;;;;;5008246;28;20052;-71
2021/03/14 00:57:54;;;;;;;5.97;0.98;;;2.50;99.90;;;;;;5028613;28;20037;-71
2021/03/14 01:00:39;;;;;;;4.78;1.10;;;2.50;99.90;;;;;;5024351;28;20040;-71
2021/03/14 01:03:43;;;;;;;5.85;0.80;;;2.50;99.90;;;;;;5027392;28;20455;-71
2021/03/14 01:06:48;;;;;;;7.55;1.15;;;2.50;99.90;;;;;;5024455;28;20060;-70
2021/03/14 01:09:53;;;;;;;5.15;0.80;;;2.50;99.90;;;;;;5018841;28;20042;-70
2021/03/14 01:12:39;;;;;;;4.78;0.70;;;2.40;99.90;;;;;;5021933;28;20049;-70
2021/03/14 01:15:23;;;;;;;4.95;1.33;;;2.40;99.90;;;;;;5013057;28;20502;-70
2021/03/14 01:18:08;;;;;;;7.80;1.38;;;2.40;99.90;;;;;;5024421;28;20041;-70
2021/03/14 01:20:52;;;;;;;5.00;1.00;;;2.40;99.90;;;;;;5015500;28;20610;-70
2021/03/14 01:23:36;;;;;;;5.88;1.55;;;2.40;99.90;;;;;;5013124;28;20103;-71
2021/03/14 01:26:28;;;;;;;4.20;1.30;;;2.50;99.90;;;;;;5015048;28;20030;-71
2021/03/14 01:29:12;;;;;;;8.55;1.27;;;2.50;99.90;;;;;;5015370;28;20083;-71
2021/03/14 01:32:17;;;;;;;4.70;1.02;;;2.50;99.90;;;;;;5015578;28;20065;-71
2021/03/14 01:35:22;;;;;;;8.35;1.85;;;2.50;99.90;;;;;;5017392;28;20446;-71
2021/03/14 01:38:26;;;;;;;4.82;1.23;;;2.60;99.90;;;;;;5014640;28;20065;-71
2021/03/14 01:41:16;;;;;;;9.23;2.15;;;2.60;99.90;;;;;;5024950;28;20146;-71
2021/03/14 01:44:00;;;;;;;8.27;2.13;;;2.70;99.90;;;;;;5024207;28;20116;-71
2021/03/14 01:46:45;;;;;;;9.65;2.65;;;2.60;99.90;;;;;;5020870;28;20044;-71
2021/03/14 01:49:29;;;;;;;7.00;2.63;;;2.60;99.90;;;;;;5020972;28;20048;-71
2021/03/14 01:52:13;;;;;;;7.68;2.83;;;2.60;99.90;;;;;;5028934;28;20091;-71
2021/03/14 01:54:58;;;;;;;9.82;3.42;;;2.70;99.90;;;;;;5024813;28;20033;-71
2021/03/14 01:57:44;;;;;;;9.52;4.45;;;2.80;99.90;;;;;;5020179;28;20079;-71
2021/03/14 02:00:28;;;;;;;8.63;5.40;;;2.70;99.90;;;;;;5023673;28;20053;-71
2021/03/14 02:03:12;;;;;;;10.45;5.35;;;2.80;99.90;;;;;;5015510;28;20041;-71
2021/03/14 02:05:56;;;;;;;10.93;6.00;;;2.80;99.90;;;;;;5040121;28;20048;-71
2021/03/14 02:08:41;;;;;;;13.05;6.75;;;2.70;99.90;;;;;;5026126;28;20052;-71
2021/03/14 02:11:28;;;;;;;16.38;7.30;;;2.80;99.90;;;;;;5016545;28;20045;-71
2021/03/14 02:14:16;;;;;;;12.75;7.63;;;2.70;99.90;;;;;;5021273;28;20068;-71
2021/03/14 02:17:01;;;;;;;13.43;7.07;;;2.70;99.90;;;;;;5024011;28;20079;-70
2021/03/14 02:20:01;;;;;;;15.48;7.55;;;2.70;99.90;;;;;;5016836;28;20524;-70
2021/03/14 02:22:53;;;;;;;14.27;7.43;;;2.70;99.90;;;;;;5018723;28;20038;-70
2021/03/14 02:26:12;;;;;;;17.33;9.95;;;2.70;99.90;;;;;;5026252;28;20044;-70
2021/03/14 02:28:57;;;;;;;18.38;10.63;;;2.70;99.90;;;;;;5025619;28;20224;-70
2021/03/14 02:31:44;;;;;;;19.80;11.75;;;2.70;99.90;;;;;;5030965;28;20037;-70
2021/03/14 02:34:33;;;;;;;16.80;10.43;;;2.80;99.90;;;;;;5028003;28;20049;-70
2021/03/14 02:37:29;;;;;;;17.90;9.93;;;2.80;99.90;;;;;;5016633;28;20037;-70
2021/03/14 02:40:14;;;;;;;18.38;11.82;;;2.90;99.90;;;;;;5021877;28;20144;-71
2021/03/14 02:43:01;;;;;;;16.42;10.77;;;2.90;99.90;;;;;;5021314;28;20053;-70
2021/03/14 02:46:07;;;;;;;18.45;10.73;;;2.90;99.90;;;;;;5025816;28;20511;-70
2021/03/14 02:48:51;;;;;;;16.38;11.95;;;2.90;99.90;;;;;;5017020;28;20037;-70
2021/03/14 02:51:38;;;;;;;17.67;12.63;;;3.00;99.90;;;;;;5021337;28;20095;-70
2021/03/14 02:54:24;;;;;;;21.77;13.40;;;3.00;99.90;;;;;;5020893;28;20053;-71
2021/03/14 02:57:09;;;;;;;24.15;14.80;;;3.10;99.90;;;;;;5014063;28;20040;-70
2021/03/14 02:59:56;;;;;;;25.27;12.70;;;3.10;99.90;;;;;;5020411;28;20107;-69
2021/03/14 03:02:44;;;;;;;22.50;12.77;;;3.10;99.90;;;;;;5026247;28;20033;-70
2021/03/14 03:05:29;;;;;;;19.42;11.80;;;3.10;99.90;;;;;;5019189;28;20039;-70
2021/03/14 03:08:16;;;;;;;19.98;12.05;;;3.10;99.90;;;;;;5021084;28;20127;-70
2021/03/14 03:11:09;;;;;;;13.32;8.73;;;3.00;99.90;;;;;;5036982;28;20133;-70
2021/03/14 03:13:54;;;;;;;24.92;9.88;;;2.90;99.90;;;;;;5023848;28;20120;-70
2021/03/14 03:16:41;;;;;;;12.88;7.47;;;2.90;99.90;;;;;;5012635;28;20041;-70
2021/03/14 03:19:26;;;;;;;17.50;9.73;;;2.90;99.90;;;;;;5019107;28;20041;-70
2021/03/14 03:22:10;;;;;;;14.02;9.15;;;2.90;99.90;;;;;;5018194;28;20040;-70
2021/03/14 03:24:55;;;;;;;10.98;7.57;;;3.00;99.90;;;;;;5018195;28;20037;-70
2021/03/14 03:27:39;;;;;;;12.95;6.53;;;2.90;99.90;;;;;;5016819;28;20036;-70
2021/03/14 03:30:26;;;;;;;8.98;5.20;;;2.90;99.90;;;;;;5015382;28;20104;-70
2021/03/14 03:33:11;;;;;;;14.38;6.57;;;2.90;99.90;;;;;;5013441;28;20049;-70
2021/03/14 03:35:55;;;;;;;12.10;5.78;;;2.90;99.90;;;;;;5016309;28;20045;-70
2021/03/14 03:38:40;;;;;;;9.82;6.05;;;2.90;99.90;;;;;;5023222;28;20231;-71
2021/03/14 03:41:26;;;;;;;9.07;5.35;;;2.80;99.90;;;;;;5014430;28;20518;-70
2021/03/14 03:44:11;;;;;;;13.10;5.82;;;2.70;99.90;;;;;;5021923;28;20048;-71
2021/03/14 03:46:58;;;;;;;11.82;6.50;;;2.70;99.90;;;;;;5022523;28;20179;-71
2021/03/14 03:49:48;;;;;;;10.38;4.82;;;2.60;99.90;;;;;;5019348;28;20045;-70
2021/03/14 03:52:54;;;;;;;6.93;3.78;;;2.70;99.90;;;;;;5021931;28;20037;-71
2021/03/14 03:55:54;;;;;;;5.03;2.50;;;2.60;99.90;;;;;;5023868;28;20037;-71
2021/03/14 03:58:40;;;;;;;7.70;2.72;;;2.50;99.90;;;;;;5016189;28;20091;-71
2021/03/14 04:01:24;;;;;;;6.75;2.20;;;2.60;99.90;;;;;;5011893;28;20045;-71
2021/03/14 04:04:09;;;;;;;4.95;1.42;;;2.50;99.90;;;;;;5016063;28;20101;-71
2021/03/14 04:06:55;;;;;;;5.43;1.40;;;2.50;99.90;;;;;;5022922;28;20096;-71
2021/03/14 04:09:43;;;;;;;5.78;1.55;;;2.50;99.90;;;;;;5015001;28;20463;-71
2021/03/14 04:12:28;;;;;;;5.65;1.20;;;2.50;99.90;;;;;;5040706;28;20473;-70
2021/03/14 04:15:28;;;;;;;6.20;1.30;;;2.30;99.90;;;;;;5014711;28;20048;-70
2021/03/14 04:18:15;;;;;;;5.68;1.45;;;2.30;99.90;;;;;;5035524;28;20124;-70
2021/03/14 04:21:22;;;;;;;4.15;1.42;;;2.20;99.90;;;;;;5015661;28;20108;-71
2021/03/14 04:24:17;;;;;;;4.40;1.08;;;2.20;99.90;;;;;;5022257;28;20049;-70
2021/03/14 04:27:02;;;;;;;4.97;1.30;;;2.20;99.90;;;;;;5013633;28;20044;-71
2021/03/14 04:29:49;;;;;;;4.15;1.20;;;2.20;99.90;;;;;;5017257;28;20084;-71
2021/03/14 04:32:36;;;;;;;5.68;1.25;;;2.20;99.90;;;;;;5015556;28;20041;-70
2021/03/14 04:35:21;;;;;;;7.07;1.05;;;2.20;99.90;;;;;;5026665;28;20061;-71
2021/03/14 04:38:07;;;;;;;2.20;1.10;;;2.10;99.90;;;;;;5027765;28;20575;-70
2021/03/14 04:40:53;;;;;;;5.47;1.67;;;2.20;99.90;;;;;;5043636;28;20033;-71
2021/03/14 04:43:40;;;;;;;8.60;1.67;;;2.20;99.90;;;;;;5019442;28;20133;-70
2021/03/14 04:46:24;;;;;;;6.15;2.30;;;2.20;99.90;;;;;;5039738;28;20045;-70
2021/03/14 04:49:08;;;;;;;9.00;3.88;;;2.20;99.90;;;;;;5021906;28;20041;-71
2021/03/14 04:52:17;;;;;;;10.45;5.55;;;2.30;99.90;;;;;;5025023;28;20091;-70
2021/03/14 04:55:08;;;;;;;18.15;6.88;;;2.40;99.90;;;;;;5020557;28;20034;-70
2021/03/14 04:57:54;;;;;;;12.63;6.47;;;2.40;99.90;;;;;;5028164;28;20083;-70
2021/03/14 05:00:40;;;;;;;12.27;6.47;;;2.40;99.90;;;;;;5018925;28;20076;-70
2021/03/14 05:03:24;;;;;;;12.60;6.43;;;2.40;99.90;;;;;;5028132;28;20073;-70
2021/03/14 05:06:10;;;;;;;13.88;6.97;;;2.40;99.90;;;;;;5019072;28;20068;-70
2021/03/14 05:08:55;;;;;;;13.15;6.90;;;2.40;99.90;;;;;;5030909;28;20128;-70
2021/03/14 05:11:43;;;;;;;16.27;6.82;;;2.40;99.90;;;;;;5025076;28;20060;-70
2021/03/14 05:14:27;;;;;;;14.02;7.50;;;2.50;99.90;;;;;;5025953;28;20086;-70
2021/03/14 05:17:33;;;;;;;17.35;7.30;;;2.50;99.90;;;;;;5016839;28;20115;-70
2021/03/14 05:20:27;;;;;;;12.80;7.07;;;2.50;99.90;;;;;;5016285;28;20030;-70
2021/03/14 05:23:12;;;;;;;16.45;7.10;;;2.50;99.90;;;;;;5026184;28;20450;-70
2021/03/14 05:25:57;;;;;;;11.75;6.28;;;2.50;99.90;;;;;;5024991;28;20120;-70
2021/03/14 05:28:42;;;;;;;12.82;6.10;;;2.50;99.90;;;;;;5028737;28;20025;-70
2021/03/14 05:31:35;;;;;;;10.77;5.68;;;2.60;99.90;;;;;;5027238;28;20111;-70
2021/03/14 05:34:19;;;;;;;14.90;6.78;;;2.60;99.90;;;;;;5033067;28;20470;-70
2021/03/14 05:37:24;;;;;;;12.55;4.95;;;2.60;99.90;;;;;;5023714;28;20030;-70
2021/03/14 05:40:29;;;;;;;13.48;4.85;;;2.70;99.90;;;;;;5018469;28;20038;-70
2021/03/14 05:43:14;;;;;;;16.50;4.20;;;2.60;99.90;;;;;;5015669;28;20082;-70
2021/03/14 05:45:58;;;;;;;15.70;5.15;;;2.60;99.90;;;;;;5038100;28;20448;-70
2021/03/14 05:48:44;;;;;;;12.63;3.90;;;2.50;99.90;;;;;;5021188;28;20026;-70
2021/03/14 05:51:34;;;;;;;7.60;3.10;;;2.60;99.90;;;;;;5031797;28;20067;-70
2021/03/14 05:54:19;;;;;;;5.65;2.50;;;2.60;99.90;;;;;;5020799;28;20495;-70
2021/03/14 05:57:24;;;;;;;8.50;3.03;;;2.50;99.90;;;;;;5014401;28;20042;-70
2021/03/14 06:00:16;;;;;;;10.45;3.13;;;2.60;99.90;;;;;;5021956;28;20196;-70
2021/03/14 06:03:02;;;;;;;11.45;3.67;;;2.50;99.90;;;;;;5027175;28;20036;-70
2021/03/14 06:05:46;;;;;;;11.15;3.65;;;2.60;99.90;;;;;;5023179;28;20486;-70
2021/03/14 06:08:31;;;;;;;12.35;3.97;;;2.60;99.90;;;;;;5019183;28;20043;-70
2021/03/14 06:11:15;;;;;;;7.38;3.58;;;2.50;99.90;;;;;;5036109;28;20085;-70
2021/03/14 06:14:01;;;;;;;10.88;3.53;;;2.50;99.90;;;;;;5023310;28;20033;-70
2021/03/14 06:16:46;;;;;;;9.45;3.88;;;2.60;99.90;;;;;;5024608;28;20033;-70
2021/03/14 06:19:31;;;;;;;16.73;6.10;;;2.60;99.90;;;;;;5028438;28;20045;-70
2021/03/14 06:22:18;;;;;;;14.88;4.88;;;2.60;99.90;;;;;;5018162;28;20060;-70
2021/03/14 06:25:03;;;;;;;18.40;5.80;;;2.70;99.90;;;;;;5031020;28;20117;-70
2021/03/14 06:27:51;;;;;;;12.98;4.65;;;2.70;99.90;;;;;;5021428;28;20068;-70
2021/03/14 06:30:36;;;;;;;12.38;4.72;;;2.70;99.90;;;;;;5011712;28;20043;-70
2021/03/14 06:33:21;;;;;;;10.55;4.82;;;2.80;99.90;;;;;;5022065;28;20049;-71
2021/03/14 06:36:12;;;;;;;14.57;5.20;;;2.80;99.90;;;;;;5012924;28;20080;-70
2021/03/14 06:38:56;;;;;;;13.52;3.80;;;2.80;99.90;;;;;;5027738;28;20084;-70
2021/03/14 06:41:40;;;;;;;13.32;3.17;;;2.90;99.90;;;;;;5019229;28;20414;-70
2021/03/14 06:44:27;;;;;;;13.13;2.90;;;2.90;99.90;;;;;;5037827;28;20083;-70
2021/03/14 06:47:48;;;;;;;14.70;2.67;;;3.00;99.90;;;;;;5010404;28;20160;-70
2021/03/14 06:50:54;;;;;;;10.52;2.60;;;3.00;99.90;;;;;;5027174;28;20538;-70
2021/03/14 06:53:42;;;;;;;12.90;2.42;;;3.10;99.90;;;;;;5026382;28;20167;-70
2021/03/14 06:56:27;;;;;;;8.55;1.95;;;3.10;99.90;;;;;;5019760;28;20033;-70
2021/03/14 06:59:19;;;;;;;11.60;2.10;;;3.10;99.90;;;;;;5013516;28;20092;-70
2021/03/14 07:02:14;;;;;;;12.43;1.95;;;3.10;99.90;;;;;;5018385;28;20048;-71
2021/03/14 07:05:01;;;;;;;8.70;1.98;;;3.10;99.90;;;;;;5018923;28;20028;-70
2021/03/14 07:07:45;;;;;;;8.68;1.90;;;3.10;99.90;;;;;;5015160;28;20568;-70
2021/03/14 07:10:37;;;;;;;10.98;1.80;;;3.10;99.90;;;;;;5029740;28;20045;-70
2021/03/14 07:13:22;;;;;;;8.40;1.95;;;3.10;99.90;;;;;;5018657;28;20044;-70
2021/03/14 07:16:06;;;;;;;10.23;2.55;;;2.90;99.90;;;;;;5023142;28;20033;-70
2021/03/14 07:18:51;;;;;;;7.97;2.20;;;3.00;99.90;;;;;;5012775;28;20029;-70
2021/03/14 07:21:36;;;;;;;8.93;1.90;;;3.00;99.90;;;;;;5031843;28;20084;-70
2021/03/14 07:24:31;;;;;;;10.05;2.28;;;2.90;99.90;;;;;;5018716;28;20041;-70
2021/03/14 07:27:32;;;;;;;11.52;2.35;;;2.90;99.90;;;;;;5015092;28;20137;-70
2021/03/14 07:30:21;;;;;;;8.75;1.52;;;3.00;99.90;;;;;;5017059;28;20044;-69
2021/03/14 07:33:06;;;;;;;7.57;1.85;;;3.00;99.90;;;;;;5020386;28;20041;-70
2021/03/14 07:35:50;;;;;;;14.90;2.20;;;3.00;99.90;;;;;;5029114;28;20079;-70
2021/03/14 07:38:34;;;;;;;8.68;2.17;;;3.00;99.90;;;;;;5029846;28;20088;-70
2021/03/14 07:41:18;;;;;;;17.60;2.08;;;3.10;99.90;;;;;;5015160;28;20033;-69
2021/03/14 07:44:06;;;;;;;14.98;2.22;;;3.10;99.90;;;;;;5035394;28;20049;-69
2021/03/14 07:46:52;;;;;;;11.43;2.15;;;3.10;99.90;;;;;;5021553;28;20044;-69
2021/03/14 07:49:37;;;;;;;11.80;2.47;;;3.20;99.90;;;;;;5026098;28;20037;-69
2021/03/14 07:52:29;;;;;;;8.60;2.45;;;3.20;99.90;;;;;;5010842;28;20137;-69
2021/03/14 07:55:33;;;;;;;6.68;1.40;;;3.20;99.90;;;;;;5016016;28;20034;-69
2021/03/14 07:58:22;;;;;;;8.57;1.52;;;3.10;99.90;;;;;;5012753;28;20096;-69
2021/03/14 08:01:22;;;;;;;7.50;2.28;;;3.00;99.90;;;;;;5017426;28;20108;-70
2021/03/14 08:04:32;;;;;;;12.90;2.55;;;3.20;99.90;;;;;;5018060;28;20603;-69
2021/03/14 08:07:37;;;;;;;12.60;2.58;;;3.40;99.90;;;;;;5023461;28;20088;-69
2021/03/14 08:10:43;;;;;;;13.32;2.47;;;3.50;99.90;;;;;;5014262;28;21493;-70
2021/03/14 08:13:30;;;;;;;9.05;1.90;;;3.50;99.90;;;;;;5023017;28;20060;-70
2021/03/14 08:16:15;;;;;;;13.63;1.73;;;3.70;99.90;;;;;;5012360;28;20045;-70
2021/03/14 08:19:11;;;;;;;7.57;1.80;;;3.80;99.90;;;;;;5024595;28;20402;-70
2021/03/14 08:22:37;;;;;;;11.45;2.10;;;3.90;99.90;;;;;;5014560;28;20137;-70
2021/03/14 08:25:23;;;;;;;10.68;2.15;;;4.00;99.90;;;;;;5019025;28;20034;-70
2021/03/14 08:28:22;;;;;;;13.75;3.25;;;4.00;99.90;;;;;;5019004;28;20482;-70
2021/03/14 08:31:07;;;;;;;16.35;4.63;;;3.80;99.90;;;;;;5023805;28;20040;-70
2021/03/14 08:34:18;;;;;;;5.55;1.65;;;3.90;99.90;;;;;;5012672;28;20049;-70
2021/03/14 08:37:02;;;;;;;20.42;4.13;;;3.90;99.90;;;;;;5020543;28;20060;-70
2021/03/14 08:39:46;;;;;;;15.30;3.05;;;3.90;99.90;;;;;;5026986;28;20032;-69
2021/03/14 08:42:54;;;;;;;8.25;2.20;;;3.80;99.90;;;;;;5026579;28;20041;-70
2021/03/14 08:45:47;;;;;;;12.93;2.67;;;3.80;99.90;;;;;;5024078;28;20036;-70
2021/03/14 08:48:52;;;;;;;12.50;2.10;;;3.90;99.90;;;;;;5022961;28;20116;-70
2021/03/14 08:51:57;;;;;;;14.80;3.83;;;3.90;99.90;;;;;;5024997;28;20045;-70
2021/03/14 08:54:45;;;;;;;11.15;2.85;;;4.00;99.90;;;;;;5022074;28;20481;-70
2021/03/14 08:57:29;;;;;;;10.35;2.67;;;3.90;99.90;;;;;;5016051;28;20040;-70
2021/03/14 09:00:14;;;;;;;4.90;1.70;;;4.00;99.90;;;;;;5019260;28;20034;-69
2021/03/14 09:03:00;;;;;;;10.77;2.45;;;4.00;99.90;;;;;;5022790;28;20534;-70
2021/03/14 09:06:19;;;;;;;12.02;1.92;;;4.20;99.90;;;;;;5027237;28;20029;-70
2021/03/14 09:09:09;;;;;;;11.52;2.28;;;4.40;99.90;;;;;;5025807;28;20032;-70
2021/03/14 09:11:56;;;;;;;10.93;1.75;;;4.20;99.90;;;;;;5006114;28;20045;-70
2021/03/14 09:14:43;;;;;;;12.95;3.00;;;4.00;99.90;;;;;;5015976;28;20183;-70
2021/03/14 09:17:27;;;;;;;6.22;1.75;;;3.90;99.90;;;;;;5025533;28;20482;-70
2021/03/14 09:20:11;;;;;;;11.50;3.00;;;3.90;99.90;;;;;;5025859;28;20068;-69
2021/03/14 09:22:56;;;;;;;11.55;2.50;;;3.90;99.90;;;;;;5038545;28;20041;-70
2021/03/14 09:25:51;;;;;;;13.27;2.80;;;4.00;99.90;;;;;;5026804;28;20647;-70
2021/03/14 09:28:45;;;;;;;9.13;1.80;;;3.90;99.90;;;;;;5027140;28;20028;-70
2021/03/14 09:31:29;;;;;;;18.15;3.58;;;3.80;99.90;;;;;;5027738;28;20079;-70
2021/03/14 09:34:19;;;;;;;9.93;2.33;;;3.90;99.90;;;;;;5024294;28;20770;-70
2021/03/14 09:37:03;;;;;;;9.82;3.38;;;3.90;99.90;;;;;;5020602;28;20025;-70
2021/03/14 09:39:48;;;;;;;12.80;3.15;;;3.80;99.90;;;;;;5020668;28;20121;-70
2021/03/14 09:42:33;;;;;;;18.83;4.35;;;3.70;99.90;;;;;;5037319;28;20525;-70
2021/03/14 09:45:22;;;;;;;11.75;3.05;;;3.40;99.90;;;;;;5024122;28;20082;-70
2021/03/14 09:48:15;;;;;;;24.73;4.10;;;3.30;99.90;;;;;;5026602;28;20036;-69
2021/03/14 09:51:06;;;;;;;16.02;4.60;;;3.10;99.90;;;;;;5040706;28;20080;-70
2021/03/14 09:53:51;;;;;;;14.70;4.05;;;2.90;99.90;;;;;;5007097;28;20039;-70
2021/03/14 09:56:35;;;;;;;12.00;3.15;;;2.80;99.90;;;;;;5015130;28;20032;-70
2021/03/14 09:59:40;;;;;;;14.02;4.93;;;2.80;99.90;;;;;;5013456;28;20030;-69
2021/03/14 10:02:44;;;;;;;15.38;5.28;;;2.70;99.90;;;;;;5028243;28;20112;-71
2021/03/14 10:05:46;;;;;;;15.75;2.83;;;2.70;99.90;;;;;;5029044;28;20091;-70
2021/03/14 10:08:30;;;;;;;9.85;4.38;;;2.70;99.90;;;;;;5038765;28;20120;-70
2021/03/14 10:11:16;;;;;;;14.27;4.03;;;2.80;99.90;;;;;;5021399;28;20436;-70
2021/03/14 10:14:00;;;;;;;14.63;4.60;;;2.70;99.90;;;;;;5018163;28;20068;-69
2021/03/14 10:16:46;;;;;;;12.35;4.65;;;2.70;99.90;;;;;;5028232;28;20414;-71
2021/03/14 10:19:31;;;;;;;10.90;4.75;;;2.80;99.90;;;;;;5018055;28;20132;-70
2021/03/14 10:22:31;;;;;;;13.32;4.78;;;2.70;99.90;;;;;;5019996;28;20065;-70
2021/03/14 10:25:29;;;;;;;13.75;4.55;;;2.70;99.90;;;;;;5025953;28;20041;-70
2021/03/14 10:28:17;;;;;;;17.15;4.78;;;2.60;99.90;;;;;;5021489;28;20136;-70
2021/03/14 10:31:06;;;;;;;14.73;5.43;;;2.70;99.90;;;;;;5038288;28;20355;-69
2021/03/14 10:34:01;;;;;;;15.57;4.78;;;2.70;99.90;;;;;;5013838;28;20053;-70
2021/03/14 10:36:46;;;;;;;11.50;4.82;;;2.80;99.90;;;;;;5026509;28;20390;-69
2021/03/14 10:39:30;;;;;;;14.45;4.00;;;2.80;99.90;;;;;;5020874;28;20557;-69
2021/03/14 10:42:48;;;;;;;15.13;3.72;;;2.80;99.90;;;;;;5027323;28;20049;-70
2021/03/14 10:45:32;;;;;;;7.53;3.72;;;2.70;99.90;;;;;;5005033;28;20040;-69
2021/03/14 10:48:17;;;;;;;15.32;4.47;;;2.60;99.90;;;;;;5025808;28;20080;-70
2021/03/14 10:51:05;;;;;;;8.07;2.80;;;2.50;99.90;;;;;;5025903;28;20063;-70
2021/03/14 10:54:04;;;;;;;8.73;3.63;;;2.40;99.90;;;;;;5025894;28;20087;-70
2021/03/14 10:56:50;;;;;;;12.75;3.95;;;2.40;99.90;;;;;;5021277;28;20136;-70
2021/03/14 10:59:34;;;;;;;10.30;3.67;;;2.30;99.90;;;;;;5019731;28;20053;-69
2021/03/14 11:02:35;;;;;;;15.52;4.82;;;2.20;99.90;;;;;;5026903;28;20431;-70
2021/03/14 11:05:23;;;;;;;9.32;4.13;;;2.30;99.90;;;;;;5026484;28;20581;-70
2021/03/14 11:08:08;;;;;;;10.57;4.22;;;2.20;99.90;;;;;;5023773;28;20128;-71
2021/03/14 11:10:53;;;;;;;7.15;3.30;;;2.10;99.90;;;;;;5032716;28;20048;-70
2021/03/14 11:13:38;;;;;;;14.45;6.55;;;2.20;99.90;;;;;;5026149;28;20856;-70
2021/03/14 11:16:24;;;;;;;10.00;4.18;;;2.20;99.90;;;;;;5018989;28;20080;-70
2021/03/14 11:19:09;;;;;;;8.32;3.05;;;2.40;99.90;;;;;;5024465;28;20509;-70
2021/03/14 11:21:54;;;;;;;4.22;1.70;;;2.60;99.90;;;;;;5030304;28;20601;-70
2021/03/14 11:24:39;;;;;;;2.28;1.42;;;2.70;99.90;;;;;;5028073;28;20049;-70
2021/03/14 11:27:24;;;;;;;3.83;1.52;;;2.70;99.90;;;;;;5014906;28;20033;-70
2021/03/14 11:30:26;;;;;;;3.90;1.77;;;2.70;99.90;;;;;;5025169;28;20129;-70
2021/03/14 11:33:10;;;;;;;7.10;1.80;;;2.90;99.90;;;;;;5024797;28;20044;-69
2021/03/14 11:36:12;;;;;;;7.15;2.17;;;2.90;99.90;;;;;;5024087;28;20049;-70
2021/03/14 11:38:56;;;;;;;3.88;1.80;;;2.90;99.90;;;;;;5021058;28;20052;-70
2021/03/14 11:41:41;;;;;;;4.47;1.73;;;3.10;99.90;;;;;;5024867;28;20029;-70
2021/03/14 11:44:26;;;;;;;4.65;2.03;;;3.20;99.90;;;;;;5024691;28;20526;-70
2021/03/14 11:47:10;;;;;;;3.40;1.55;;;3.30;99.90;;;;;;5018691;28;20074;-70
2021/03/14 11:49:54;;;;;;;5.20;1.85;;;3.30;99.90;;;;;;5020594;28;20045;-69
2021/03/14 11:52:39;;;;;;;4.18;1.58;;;3.40;99.90;;;;;;5024864;28;20048;-70
2021/03/14 11:55:23;;;;;;;5.47;1.77;;;3.50;99.90;;;;;;5024601;28;20030;-69
2021/03/14 11:58:07;;;;;;;2.95;1.80;;;3.60;99.90;;;;;;5018520;28;20034;-70
2021/03/14 12:00:52;;;;;;;10.38;2.53;;;3.70;99.90;;;;;;5019953;28;20395;-69
2021/03/14 12:03:36;;;;;;;5.60;2.03;;;3.40;99.90;;;;;;5023359;28;20379;-70
2021/03/14 12:06:28;;;;;;;7.35;2.97;;;3.30;99.90;;;;;;5026657;28;20064;-70
2021/03/14 12:09:13;;;;;;;6.57;2.30;;;3.60;99.90;;;;;;5022649;28;20045;-70
2021/03/14 12:11:59;;;;;;;5.60;2.50;;;3.80;99.90;;;;;;5012733;28;20042;-70
2021/03/14 12:14:44;;;;;;;3.55;1.73;;;3.90;99.90;;;;;;5022493;28;20056;-70
2021/03/14 12:17:28;;;;;;;5.18;2.53;;;3.90;99.90;;;;;;5020448;28;20073;-70
2021/03/14 12:20:13;;;;;;;7.43;2.88;;;3.80;99.90;;;;;;5022630;28;20065;-69
2021/03/14 12:22:57;;;;;;;5.22;2.15;;;3.90;99.90;;;;;;5022261;28;20275;-70
2021/03/14 12:25:50;;;;;;;4.00;1.90;;;4.00;99.90;;;;;;5025978;28;20057;-70
2021/03/14 12:28:34;;;;;;;6.40;3.58;;;4.00;99.90;;;;;;5022335;28;20166;-70
2021/03/14 12:31:18;;;;;;;5.93;3.33;;;4.30;99.90;;;;;;5027173;28;20148;-70
2021/03/14 12:34:02;;;;;;;5.22;3.05;;;4.40;99.90;;;;;;5025337;28;20044;-70
2021/03/14 12:36:50;;;;;;;8.00;3.70;;;4.50;99.90;;;;;;5025489;28;20060;-70
2021/03/14 12:39:34;;;;;;;4.97;2.85;;;4.40;99.90;;;;;;5024624;28;20033;-71
2021/03/14 12:42:19;;;;;;;8.25;3.72;;;4.40;99.90;;;;;;5028327;28;20044;-70
2021/03/14 12:45:03;;;;;;;4.85;2.42;;;4.40;99.90;;;;;;5019934;28;20118;-71
2021/03/14 12:47:48;;;;;;;7.80;1.80;;;4.30;99.90;;;;;;5024713;28;20034;-69
2021/03/14 12:50:33;;;;;;;4.85;2.08;;;4.30;99.90;;;;;;5023626;28;20171;-70
2021/03/14 12:53:33;;;;;;;5.25;2.28;;;4.40;99.90;;;;;;5027388;28;20134;-71
2021/03/14 12:56:18;;;;;;;4.30;2.65;;;4.30;99.90;;;;;;5028320;28;20574;-71
2021/03/14 12:59:02;;;;;;;4.80;2.88;;;4.30;99.90;;;;;;5013575;28;20427;-69
2021/03/14 13:01:47;;;;;;;2.40;1.80;;;4.30;99.90;;;;;;5029892;28;20459;-69
2021/03/14 13:04:31;;;;;;;4.35;2.40;;;4.30;99.90;;;;;;5011060;28;20052;-70
2021/03/14 13:07:17;;;;;;;4.82;2.30;;;4.50;99.90;;;;;;5029929;28;20033;-70
2021/03/14 13:10:04;;;;;;;2.38;1.63;;;4.60;99.90;;;;;;5027882;28;20065;-69
2021/03/14 13:12:49;;;;;;;4.38;2.20;;;4.60;99.90;;;;;;5032181;28;20359;-69
2021/03/14 13:15:33;;;;;;;3.20;2.08;;;4.60;99.90;;;;;;5030659;28;20041;-70
2021/03/14 13:18:18;;;;;;;4.28;2.35;;;4.60;99.90;;;;;;5032075;28;20035;-71
2021/03/14 13:21:22;;;;;;;4.50;2.70;;;4.60;99.90;;;;;;5031982;28;20034;-70
2021/03/14 13:24:27;;;;;;;4.47;2.33;;;4.60;99.90;;;;;;5030456;28;20435;-70
2021/03/14 13:27:31;;;;;;;3.67;2.50;;;4.70;99.90;;;;;;5022794;28;20034;-70
2021/03/14 13:30:36;;;;;;;5.55;2.85;;;4.90;99.90;;;;;;5012271;28;20054;-70
2021/03/14 13:33:41;;;;;;;6.07;2.33;;;5.10;99.90;;;;;;5026243;28;20041;-70
2021/03/14 13:36:45;;;;;;;4.78;2.55;;;5.50;99.90;;;;;;5023693;28;20112;-70
2021/03/14 13:39:50;;;;;;;3.85;2.05;;;5.90;99.90;;;;;;5020810;28;20032;-69
2021/03/14 13:42:55;;;;;;;2.97;2.00;;;7.50;99.90;;;;;;5029324;28;20120;-70
2021/03/14 13:46:01;;;;;;;2.45;1.45;;;9.50;99.90;;;;;;5012261;28;20384;-70
2021/03/14 13:49:06;;;;;;;3.00;1.58;;;11.20;99.90;;;;;;5025405;28;20076;-70
2021/03/14 13:52:11;;;;;;;2.78;1.40;;;12.30;99.90;;;;;;5030721;28;20416;-70
2021/03/14 13:54:56;;;;;;;1.95;1.27;;;12.80;99.90;;;;;;5029235;28;20071;-69
2021/03/14 13:57:52;;;;;;;2.75;1.40;;;13.10;99.90;;;;;;5031738;28;20037;-69
2021/03/14 14:00:37;;;;;;;2.97;1.88;;;11.30;99.90;;;;;;5030893;28;20029;-70
2021/03/14 14:03:21;;;;;;;3.00;1.70;;;9.60;99.90;;;;;;5027985;28;20065;-71
2021/03/14 14:06:06;;;;;;;2.97;1.92;;;10.40;99.90;;;;;;5025227;28;20116;-71
2021/03/14 14:09:03;;;;;;;3.28;1.90;;;10.80;99.90;;;;;;5025013;28;20038;-69
2021/03/14 14:11:47;;;;;;;2.63;1.27;;;11.30;99.90;;;;;;5027264;28;20048;-69
2021/03/14 14:14:31;;;;;;;3.08;1.38;;;11.50;99.90;;;;;;5032399;28;20037;-71
2021/03/14 14:17:36;;;;;;;2.20;1.10;;;11.10;99.90;;;;;;5030429;28;20070;-70
2021/03/14 14:20:40;;;;;;;2.65;1.10;;;10.30;99.90;;;;;;5029057;28;20040;-70
2021/03/14 14:23:25;;;;;;;3.00;1.48;;;11.30;99.90;;;;;;5021642;28;20053;-70
2021/03/14 14:26:09;;;;;;;2.90;1.45;;;10.50;99.90;;;;;;5023053;28;20038;-70
2021/03/14 14:28:53;;;;;;;2.60;1.27;;;9.80;99.90;;;;;;5035277;28;20145;-68
2021/03/14 14:31:38;;;;;;;1.55;0.80;;;9.90;99.90;;;;;;5017878;28;20044;-70
2021/03/14 14:34:22;;;;;;;2.10;1.08;;;9.80;99.90;;;;;;5015950;28;20084;-70
2021/03/14 14:37:06;;;;;;;2.45;1.10;;;9.50;99.90;;;;;;5011710;28;20069;-68
2021/03/14 14:39:51;;;;;;;1.85;0.80;;;10.80;99.90;;;;;;5015441;28;20029;-69
2021/03/14 14:42:35;;;;;;;1.77;0.80;;;13.70;99.90;;;;;;5020662;28;20255;-70
2021/03/14 14:45:20;;;;;;;2.85;0.90;;;13.80;99.90;;;;;;5030263;28;20055;-69
2021/03/14 14:48:04;;;;;;;3.28;1.30;;;15.40;99.90;;;;;;5026924;28;20060;-70